Time;durP1;ratioP1;P1;durP2;ratioP2;P2;SDS_P1;SDS_P2;PMS_P1;PMS_P2;Temp;Humidity;BMP_temperature;BMP_pressure;BME280_temperature;BME280_humidity;BME280_pressure;Samples;Min_cycle;Max_cycle;Signal;HPM_P1;HPM_P2
2021/03/10 00:00:33;;;;;;;17.60;10.60;;;6.30;94.70;;;;;;5093086;28;20075;-86
2021/03/10 00:03:00;;;;;;;16.95;10.63;;;6.30;94.90;;;;;;5093491;28;20051;-89
2021/03/10 00:05:27;;;;;;;15.65;10.63;;;6.30;94.80;;;;;;5094691;28;20044;-90
2021/03/10 00:07:54;;;;;;;17.63;11.48;;;6.10;95.20;;;;;;5093626;28;20473;-90
2021/03/10 00:10:21;;;;;;;17.25;11.25;;;6.10;95.70;;;;;;5093457;28;20134;-90
2021/03/10 00:12:47;;;;;;;17.88;10.63;;;6.10;95.70;;;;;;5100745;28;20075;-90
2021/03/10 00:15:15;;;;;;;18.38;11.63;;;6.00;95.90;;;;;;5106294;28;20086;-91
2021/03/10 00:17:43;;;;;;;16.27;9.98;;;5.90;95.90;;;;;;5098999;28;20080;-90
2021/03/10 00:20:14;;;;;;;16.63;10.52;;;5.90;96.20;;;;;;5093150;28;20060;-89
2021/03/10 00:22:42;;;;;;;18.17;11.50;;;5.80;96.30;;;;;;5093783;28;20056;-91
2021/03/10 00:25:10;;;;;;;19.85;12.02;;;5.80;96.40;;;;;;5075298;28;20552;-91
2021/03/10 00:27:38;;;;;;;19.23;11.73;;;5.80;96.50;;;;;;5093690;28;20123;-91
2021/03/10 00:30:08;;;;;;;17.83;11.05;;;5.80;96.60;;;;;;5058796;28;20044;-90
2021/03/10 00:32:37;;;;;;;18.67;11.60;;;5.80;96.60;;;;;;5093359;28;20086;-91
2021/03/10 00:35:05;;;;;;;16.73;10.15;;;5.70;96.60;;;;;;5058746;28;20131;-91
2021/03/10 00:37:32;;;;;;;16.23;9.82;;;5.70;96.80;;;;;;5092956;28;20131;-91
2021/03/10 00:39:59;;;;;;;18.23;11.18;;;5.70;96.80;;;;;;5092773;28;20139;-88
2021/03/10 00:42:26;;;;;;;15.32;10.65;;;5.80;97.00;;;;;;5092472;28;20130;-88
2021/03/10 00:44:52;;;;;;;19.08;12.10;;;5.80;96.80;;;;;;5058818;28;20159;-83
2021/03/10 00:47:19;;;;;;;15.23;9.38;;;5.80;96.70;;;;;;5093324;28;20967;-85
2021/03/10 00:49:47;;;;;;;18.00;11.32;;;5.90;96.60;;;;;;5075076;28;20127;-88
2021/03/10 00:52:14;;;;;;;18.50;11.55;;;5.90;96.60;;;;;;5074768;28;20146;-85
2021/03/10 00:54:42;;;;;;;18.63;11.50;;;6.00;96.60;;;;;;5092716;28;20072;-85
2021/03/10 00:57:09;;;;;;;19.70;11.45;;;6.00;96.60;;;;;;5092743;28;20506;-85
2021/03/10 00:59:36;;;;;;;20.83;13.18;;;6.00;96.60;;;;;;5091981;28;20143;-85
2021/03/10 01:02:03;;;;;;;23.77;14.48;;;6.10;96.00;;;;;;5074651;28;20055;-87
2021/03/10 01:04:30;;;;;;;19.40;12.43;;;6.10;95.90;;;;;;5092512;28;20443;-87
2021/03/10 01:06:57;;;;;;;23.48;13.30;;;6.00;96.20;;;;;;5075162;28;20088;-86
2021/03/10 01:09:24;;;;;;;20.88;12.15;;;5.90;96.40;;;;;;5074643;28;20071;-86
2021/03/10 01:11:52;;;;;;;20.60;12.60;;;5.70;97.20;;;;;;5091217;28;20135;-86
2021/03/10 01:14:19;;;;;;;19.25;12.45;;;5.60;97.60;;;;;;5092263;28;20094;-88
2021/03/10 01:16:45;;;;;;;22.00;13.30;;;5.60;97.90;;;;;;5073588;28;20504;-88
2021/03/10 01:19:12;;;;;;;22.30;12.55;;;5.60;97.90;;;;;;5074118;28;20048;-88
2021/03/10 01:21:39;;;;;;;19.58;13.18;;;5.60;98.10;;;;;;5091287;28;20131;-88
2021/03/10 01:24:08;;;;;;;19.80;12.65;;;5.60;98.20;;;;;;5092713;28;20177;-89
2021/03/10 01:26:35;;;;;;;20.27;12.35;;;5.50;98.40;;;;;;5091551;28;20127;-87
2021/03/10 01:29:03;;;;;;;20.50;12.93;;;5.50;98.50;;;;;;5074595;28;20071;-84
2021/03/10 01:31:30;;;;;;;19.25;11.98;;;5.60;98.50;;;;;;5092335;28;20139;-86
2021/03/10 01:33:56;;;;;;;21.60;13.13;;;5.50;98.70;;;;;;5073841;28;20108;-85
2021/03/10 01:36:23;;;;;;;18.35;11.73;;;5.60;98.80;;;;;;5092099;28;20071;-88
2021/03/10 01:38:50;;;;;;;18.90;11.90;;;5.50;98.80;;;;;;5091934;28;20171;-88
2021/03/10 01:41:17;;;;;;;18.95;11.73;;;5.60;99.00;;;;;;5074176;28;20140;-86
2021/03/10 01:43:43;;;;;;;19.30;12.25;;;5.60;98.90;;;;;;5092111;28;20055;-84
2021/03/10 01:46:11;;;;;;;22.52;12.23;;;5.60;99.00;;;;;;5091859;28;20659;-88
2021/03/10 01:48:39;;;;;;;19.90;12.18;;;5.70;98.90;;;;;;5057265;28;20131;-88
2021/03/10 01:51:06;;;;;;;18.92;11.88;;;5.70;98.90;;;;;;5054228;28;20563;-88
2021/03/10 01:53:34;;;;;;;18.05;11.32;;;5.70;98.90;;;;;;5056783;28;20123;-88
2021/03/10 01:56:02;;;;;;;18.45;12.13;;;5.70;98.90;;;;;;5091545;28;20077;-88
2021/03/10 01:58:28;;;;;;;17.10;11.27;;;5.70;98.90;;;;;;5091575;28;20156;-88
2021/03/10 02:00:56;;;;;;;18.75;11.57;;;5.70;98.90;;;;;;5091996;28;20135;-89
2021/03/10 02:03:24;;;;;;;21.10;12.60;;;5.70;98.90;;;;;;5074146;28;20522;-86
2021/03/10 02:05:51;;;;;;;20.38;12.52;;;5.80;98.90;;;;;;5091676;28;20143;-86
2021/03/10 02:08:30;;;;;;;21.45;12.35;;;5.80;98.90;;;;;;5053950;28;20075;-86
2021/03/10 02:11:09;;;;;;;20.20;12.82;;;5.80;98.80;;;;;;5077840;28;20043;-86
2021/03/10 02:13:51;;;;;;;20.70;13.23;;;5.80;98.80;;;;;;5112519;28;20134;-86
2021/03/10 02:16:30;;;;;;;23.02;13.30;;;5.90;98.70;;;;;;5090337;28;20123;-87
2021/03/10 02:19:05;;;;;;;19.35;12.05;;;5.90;98.60;;;;;;5084211;28;20101;-87
2021/03/10 02:21:48;;;;;;;21.40;13.23;;;5.90;98.70;;;;;;5074039;28;20138;-85
2021/03/10 02:24:33;;;;;;;21.80;12.85;;;5.90;98.70;;;;;;5091756;28;20044;-89
2021/03/10 02:27:31;;;;;;;;;;;5.90;98.80;;;;;;5074803;28;20075;-89
2021/03/10 02:30:02;;;;;;;20.00;12.32;;;5.90;98.70;;;;;;5092245;28;20006;-89
2021/03/10 02:32:30;;;;;;;23.23;12.57;;;5.90;98.60;;;;;;5074244;28;20091;-88
2021/03/10 02:34:57;;;;;;;22.10;13.27;;;5.90;98.60;;;;;;5091164;28;20135;-85
2021/03/10 02:37:27;;;;;;;22.08;13.07;;;5.90;98.70;;;;;;5073801;28;20121;-86
2021/03/10 02:39:55;;;;;;;21.65;12.88;;;5.90;98.70;;;;;;5091787;28;20075;-85
2021/03/10 02:42:22;;;;;;;23.88;14.02;;;5.90;98.80;;;;;;5091755;28;20418;-86
2021/03/10 02:44:49;;;;;;;21.80;13.38;;;6.00;98.70;;;;;;5091500;28;20170;-89
2021/03/10 02:47:17;;;;;;;21.92;13.60;;;5.90;98.60;;;;;;5092008;28;20130;-89
2021/03/10 02:49:45;;;;;;;21.92;12.82;;;5.90;98.80;;;;;;5074502;28;20055;-89
2021/03/10 02:52:12;;;;;;;22.17;13.18;;;5.90;98.80;;;;;;5074811;28;20139;-89
2021/03/10 02:54:41;;;;;;;21.88;13.77;;;5.90;99.10;;;;;;5092014;28;20148;-88
2021/03/10 02:57:08;;;;;;;23.55;14.90;;;5.90;98.90;;;;;;5091138;28;20535;-88
2021/03/10 02:59:35;;;;;;;23.30;14.02;;;5.90;98.70;;;;;;5090907;28;20052;-87
2021/03/10 03:02:02;;;;;;;24.25;14.43;;;5.90;98.60;;;;;;5092383;28;20474;-87
2021/03/10 03:04:30;;;;;;;22.15;12.90;;;5.90;98.70;;;;;;5075967;28;20052;-86
2021/03/10 03:06:56;;;;;;;24.48;14.25;;;5.80;98.90;;;;;;5075309;28;20127;-84
2021/03/10 03:09:23;;;;;;;26.08;15.32;;;5.90;98.60;;;;;;5076004;28;20064;-86
2021/03/10 03:11:50;;;;;;;23.48;14.30;;;5.90;98.50;;;;;;5093704;28;20131;-88
2021/03/10 03:14:18;;;;;;;27.38;15.40;;;5.80;98.70;;;;;;5075792;28;20127;-87
2021/03/10 03:16:45;;;;;;;25.08;14.50;;;5.80;98.50;;;;;;5076077;28;20044;-88
2021/03/10 03:19:12;;;;;;;29.55;16.90;;;5.80;98.60;;;;;;5092734;28;20048;-88
2021/03/10 03:21:41;;;;;;;28.50;15.60;;;5.80;98.60;;;;;;5075657;28;20127;-87
2021/03/10 03:24:09;;;;;;;28.08;15.30;;;5.80;98.60;;;;;;5093552;28;20131;-84
2021/03/10 03:26:37;;;;;;;25.10;15.38;;;5.80;98.50;;;;;;5074662;28;20516;-83
2021/03/10 03:29:06;;;;;;;26.17;16.27;;;5.70;98.70;;;;;;5093286;28;20483;-84
2021/03/10 03:31:35;;;;;;;23.98;13.85;;;5.80;98.80;;;;;;5094007;28;20048;-89
2021/03/10 03:34:03;;;;;;;27.98;16.15;;;5.60;98.90;;;;;;5077152;28;20072;-84
2021/03/10 03:36:31;;;;;;;25.52;15.50;;;5.60;98.90;;;;;;5074851;28;20048;-85
2021/03/10 03:39:01;;;;;;;28.70;15.52;;;5.70;99.00;;;;;;5093398;28;20138;-85
2021/03/10 03:41:28;;;;;;;24.85;14.02;;;5.60;99.00;;;;;;5096988;28;20091;-86
2021/03/10 03:43:55;;;;;;;30.45;17.33;;;5.60;99.20;;;;;;5079093;28;20044;-86
2021/03/10 03:46:22;;;;;;;27.58;16.13;;;5.60;99.10;;;;;;5078963;28;20078;-86
2021/03/10 03:48:49;;;;;;;27.27;16.15;;;5.60;99.10;;;;;;5096619;28;20132;-86
2021/03/10 03:51:25;;;;;;;26.17;15.30;;;5.60;99.20;;;;;;5097233;28;20127;-86
2021/03/10 03:54:02;;;;;;;26.65;14.95;;;5.60;99.40;;;;;;5096980;28;20076;-86
2021/03/10 03:56:29;;;;;;;25.80;14.95;;;5.60;99.40;;;;;;5096825;28;20123;-86
2021/03/10 03:58:56;;;;;;;27.55;15.80;;;5.60;99.20;;;;;;5095752;28;20131;-86
2021/03/10 04:01:23;;;;;;;25.02;13.77;;;5.60;99.00;;;;;;5096680;28;20135;-88
2021/03/10 04:03:50;;;;;;;27.83;14.63;;;5.60;99.20;;;;;;5078056;28;20123;-85
2021/03/10 04:06:18;;;;;;;26.52;15.20;;;5.60;99.30;;;;;;5094787;28;20167;-89
2021/03/10 04:08:46;;;;;;;26.02;16.02;;;5.60;99.00;;;;;;5094329;28;20135;-87
2021/03/10 04:11:16;;;;;;;26.65;16.05;;;5.70;98.90;;;;;;5094193;28;20044;-86
2021/03/10 04:13:43;;;;;;;28.45;15.27;;;5.60;98.90;;;;;;5093977;28;20052;-89
2021/03/10 04:16:10;;;;;;;29.20;15.85;;;5.60;99.20;;;;;;5094892;28;20115;-89
2021/03/10 04:18:38;;;;;;;26.67;15.30;;;5.60;99.00;;;;;;5094259;28;20077;-89
2021/03/10 04:21:06;;;;;;;26.80;15.38;;;5.60;98.90;;;;;;5094989;28;20127;-88
2021/03/10 04:23:32;;;;;;;27.25;16.05;;;5.60;98.90;;;;;;5076876;28;20364;-87
2021/03/10 04:25:59;;;;;;;28.25;16.17;;;5.60;98.90;;;;;;5094529;28;20135;-89
2021/03/10 04:28:27;;;;;;;30.13;16.67;;;5.60;98.80;;;;;;5079240;28;20036;-85
2021/03/10 04:30:55;;;;;;;26.67;15.65;;;5.60;98.70;;;;;;5093825;28;20582;-84
2021/03/10 04:33:21;;;;;;;26.20;15.02;;;5.50;98.70;;;;;;5094790;28;20072;-89
2021/03/10 04:35:48;;;;;;;26.80;15.85;;;5.50;98.80;;;;;;5094515;28;20119;-85
2021/03/10 04:38:14;;;;;;;28.92;15.75;;;5.50;98.80;;;;;;5093925;28;20103;-87
2021/03/10 04:40:41;;;;;;;27.83;15.85;;;5.50;98.80;;;;;;5093674;28;20127;-87
2021/03/10 04:43:08;;;;;;;25.27;15.20;;;5.50;98.80;;;;;;5094092;28;20130;-83
2021/03/10 04:45:35;;;;;;;30.40;17.13;;;5.50;98.90;;;;;;5093199;28;20135;-81
2021/03/10 04:48:02;;;;;;;24.15;14.27;;;5.50;98.80;;;;;;5074076;28;20135;-81
2021/03/10 04:50:29;;;;;;;27.85;16.30;;;5.50;98.80;;;;;;5074400;28;20489;-80
2021/03/10 04:52:55;;;;;;;27.30;15.40;;;5.50;98.90;;;;;;5093146;28;20144;-79
2021/03/10 04:55:22;;;;;;;28.52;15.88;;;5.50;98.80;;;;;;5092568;28;20343;-80
2021/03/10 04:57:49;;;;;;;26.88;15.75;;;5.50;98.60;;;;;;5092660;28;20139;-80
2021/03/10 05:00:17;;;;;;;28.02;16.10;;;5.50;98.80;;;;;;5092778;28;20139;-80
2021/03/10 05:02:44;;;;;;;27.02;16.02;;;5.40;99.00;;;;;;5092758;28;20098;-79
2021/03/10 05:05:13;;;;;;;29.15;16.42;;;5.40;98.70;;;;;;5074907;28;20136;-80
2021/03/10 05:07:40;;;;;;;26.80;16.38;;;5.40;98.60;;;;;;5091652;28;20047;-80
2021/03/10 05:10:10;;;;;;;27.33;15.05;;;5.40;98.80;;;;;;5074179;28;20079;-81
2021/03/10 05:12:37;;;;;;;25.23;14.77;;;5.30;98.90;;;;;;5091451;28;20131;-80
2021/03/10 05:15:06;;;;;;;26.67;15.27;;;5.30;98.80;;;;;;5073716;28;20048;-81
2021/03/10 05:17:33;;;;;;;24.05;14.40;;;5.30;98.90;;;;;;5092066;28;20429;-81
2021/03/10 05:20:01;;;;;;;27.08;15.10;;;5.30;99.20;;;;;;5092586;28;20713;-81
2021/03/10 05:22:28;;;;;;;29.13;16.77;;;5.30;99.00;;;;;;5074822;28;20126;-82
2021/03/10 05:24:55;;;;;;;31.23;16.13;;;5.40;98.90;;;;;;5091708;28;20543;-81
2021/03/10 05:27:22;;;;;;;31.73;17.30;;;5.40;98.60;;;;;;5074110;28;20084;-81
2021/03/10 05:29:49;;;;;;;25.67;15.02;;;5.40;98.70;;;;;;5092251;28;20156;-83
2021/03/10 05:32:15;;;;;;;27.10;15.23;;;5.30;99.20;;;;;;5101677;28;20142;-85
2021/03/10 05:34:42;;;;;;;29.17;16.63;;;5.20;99.20;;;;;;5106717;28;20092;-84
2021/03/10 05:37:10;;;;;;;27.08;14.90;;;5.20;99.10;;;;;;5080407;28;20122;-84
2021/03/10 05:39:37;;;;;;;30.55;17.05;;;5.10;99.30;;;;;;5108248;28;20505;-84
2021/03/10 05:42:04;;;;;;;30.55;16.27;;;5.30;99.20;;;;;;5093084;28;20134;-83
2021/03/10 05:44:31;;;;;;;28.52;17.20;;;5.30;99.10;;;;;;5092772;28;20146;-84
2021/03/10 05:46:58;;;;;;;27.55;15.73;;;5.30;99.20;;;;;;5074889;28;20501;-84
2021/03/10 05:49:25;;;;;;;27.35;14.93;;;5.30;99.20;;;;;;5074775;28;20123;-84
2021/03/10 05:51:52;;;;;;;26.55;15.68;;;5.20;99.20;;;;;;5073859;28;20562;-83
2021/03/10 05:54:22;;;;;;;27.38;15.30;;;5.20;99.50;;;;;;5095162;28;20126;-84
2021/03/10 05:56:49;;;;;;;28.88;16.00;;;5.20;99.40;;;;;;5070937;28;20486;-84
2021/03/10 05:59:15;;;;;;;26.80;15.15;;;5.20;99.30;;;;;;5071581;28;20144;-84
2021/03/10 06:01:42;;;;;;;29.52;16.08;;;5.20;99.30;;;;;;5054320;28;20591;-84
2021/03/10 06:04:09;;;;;;;28.15;16.15;;;5.20;99.10;;;;;;5072285;28;20108;-84
2021/03/10 06:06:38;;;;;;;31.00;15.85;;;5.30;99.00;;;;;;5088216;28;20144;-84
2021/03/10 06:09:16;;;;;;;27.63;15.07;;;5.20;99.00;;;;;;5062961;28;20465;-84
2021/03/10 06:11:55;;;;;;;29.52;16.55;;;5.20;99.30;;;;;;5101318;28;20044;-85
2021/03/10 06:14:22;;;;;;;29.08;16.02;;;5.20;98.90;;;;;;5093711;28;20136;-85
2021/03/10 06:16:59;;;;;;;25.52;15.10;;;5.30;98.90;;;;;;5074638;28;20584;-84
2021/03/10 06:19:26;;;;;;;29.48;15.85;;;5.30;99.00;;;;;;5092532;28;20081;-84
2021/03/10 06:21:53;;;;;;;26.90;16.13;;;5.40;98.70;;;;;;5092272;28;20509;-84
2021/03/10 06:24:20;;;;;;;28.30;15.82;;;5.30;98.80;;;;;;5091224;28;20079;-84
2021/03/10 06:26:54;;;;;;;28.88;15.57;;;5.30;98.80;;;;;;5057940;28;20133;-84
2021/03/10 06:29:22;;;;;;;26.45;15.18;;;5.30;98.80;;;;;;5074375;28;20090;-84
2021/03/10 06:31:49;;;;;;;27.17;15.27;;;5.30;98.80;;;;;;5074406;28;20090;-84
2021/03/10 06:34:16;;;;;;;26.25;14.82;;;5.30;98.90;;;;;;5073761;28;20139;-84
2021/03/10 06:36:48;;;;;;;26.05;14.70;;;5.20;98.90;;;;;;5091581;28;20072;-84
2021/03/10 06:39:25;;;;;;;28.65;16.40;;;5.30;99.10;;;;;;5091475;28;20040;-84
2021/03/10 06:41:52;;;;;;;26.60;15.38;;;5.40;99.00;;;;;;5091448;28;20544;-84
2021/03/10 06:44:21;;;;;;;29.25;16.52;;;5.30;98.90;;;;;;5072922;28;20126;-84
2021/03/10 06:46:53;;;;;;;25.75;14.98;;;5.40;98.60;;;;;;5053640;28;20071;-84
2021/03/10 06:49:21;;;;;;;24.52;14.95;;;5.40;98.80;;;;;;5053340;28;20135;-84
2021/03/10 06:51:52;;;;;;;28.80;15.95;;;5.40;98.80;;;;;;5071399;28;20080;-84
2021/03/10 06:54:19;;;;;;;27.27;15.02;;;5.30;98.70;;;;;;5070867;28;20469;-83
2021/03/10 06:56:46;;;;;;;27.42;15.90;;;5.40;99.00;;;;;;5090465;28;20119;-84
2021/03/10 06:59:13;;;;;;;28.88;16.70;;;5.30;99.00;;;;;;5090823;28;20147;-83
2021/03/10 07:01:41;;;;;;;30.55;17.38;;;5.40;98.70;;;;;;5073406;28;20457;-84
2021/03/10 07:04:10;;;;;;;28.13;16.05;;;5.40;98.60;;;;;;5091528;28;20079;-84
2021/03/10 07:06:38;;;;;;;27.40;16.40;;;5.50;98.70;;;;;;5090154;28;20151;-83
2021/03/10 07:09:06;;;;;;;26.52;14.95;;;5.50;98.80;;;;;;5091131;28;20557;-84
2021/03/10 07:11:34;;;;;;;27.65;16.20;;;5.50;98.50;;;;;;5090928;28;20135;-84
2021/03/10 07:14:01;;;;;;;31.08;16.65;;;5.50;98.60;;;;;;5092055;28;20131;-84
2021/03/10 07:16:32;;;;;;;30.58;16.15;;;5.60;98.70;;;;;;5076991;28;20135;-84
2021/03/10 07:19:00;;;;;;;28.33;15.88;;;5.50;98.50;;;;;;5095544;28;20067;-84
2021/03/10 07:21:35;;;;;;;27.73;15.57;;;5.60;98.50;;;;;;5077142;28;20059;-85
2021/03/10 07:24:04;;;;;;;27.98;16.25;;;5.60;98.60;;;;;;5076993;28;20052;-84
2021/03/10 07:26:32;;;;;;;29.05;15.85;;;5.70;98.50;;;;;;5095110;28;20114;-84
2021/03/10 07:29:04;;;;;;;30.15;17.40;;;5.80;98.50;;;;;;5093718;28;20442;-84
2021/03/10 07:31:31;;;;;;;28.48;16.13;;;5.70;98.50;;;;;;5094873;28;20058;-84
2021/03/10 07:33:58;;;;;;;30.27;16.80;;;5.70;98.40;;;;;;5094811;28;20048;-84
2021/03/10 07:36:37;;;;;;;29.90;17.58;;;5.80;98.50;;;;;;5095090;28;20446;-84
2021/03/10 07:39:07;;;;;;;28.08;15.07;;;5.80;98.40;;;;;;5094567;28;20135;-84
2021/03/10 07:41:39;;;;;;;29.55;17.50;;;5.80;98.30;;;;;;5094441;28;20112;-84
2021/03/10 07:44:21;;;;;;;30.77;17.80;;;5.90;98.00;;;;;;5094703;28;20072;-83
2021/03/10 07:46:51;;;;;;;27.25;15.52;;;5.90;98.20;;;;;;5094127;28;20083;-83
2021/03/10 07:49:24;;;;;;;30.17;17.38;;;5.90;98.10;;;;;;5094506;28;20813;-84
2021/03/10 07:52:03;;;;;;;29.17;16.35;;;6.00;97.90;;;;;;5095244;28;20144;-83
2021/03/10 07:54:30;;;;;;;29.83;15.85;;;5.90;97.90;;;;;;5094833;28;20405;-84
2021/03/10 07:57:09;;;;;;;29.13;16.95;;;6.00;97.80;;;;;;5096266;28;20079;-83
2021/03/10 07:59:36;;;;;;;29.85;17.00;;;6.00;97.80;;;;;;5096175;28;20094;-83
2021/03/10 08:02:06;;;;;;;29.30;15.88;;;6.00;97.90;;;;;;5097774;28;20101;-84
2021/03/10 08:04:34;;;;;;;32.80;17.20;;;5.90;97.90;;;;;;5095024;28;20048;-84
2021/03/10 08:07:01;;;;;;;29.13;16.42;;;6.20;97.90;;;;;;5096005;28;20048;-83
2021/03/10 08:09:29;;;;;;;29.52;17.35;;;6.20;97.80;;;;;;5094521;28;20405;-84
2021/03/10 08:12:08;;;;;;;29.13;17.13;;;6.30;97.50;;;;;;5095397;28;20052;-83
2021/03/10 08:14:38;;;;;;;27.35;16.50;;;6.30;97.50;;;;;;5094596;28;20089;-84
2021/03/10 08:17:06;;;;;;;31.13;18.02;;;6.30;97.50;;;;;;5094631;28;20121;-83
2021/03/10 08:19:34;;;;;;;32.78;18.10;;;6.30;97.20;;;;;;5076178;28;20131;-84
2021/03/10 08:22:00;;;;;;;35.15;18.27;;;6.30;97.40;;;;;;5096430;28;20044;-84
2021/03/10 08:24:30;;;;;;;30.02;17.40;;;6.40;97.10;;;;;;5102456;28;20048;-83
2021/03/10 08:27:00;;;;;;;29.77;16.30;;;6.50;96.80;;;;;;5102006;28;20048;-84
2021/03/10 08:29:30;;;;;;;32.13;17.60;;;6.50;97.00;;;;;;5086215;28;20044;-83
2021/03/10 08:31:58;;;;;;;34.55;18.23;;;6.40;96.50;;;;;;5092503;28;20052;-84
2021/03/10 08:34:35;;;;;;;27.55;16.15;;;6.40;96.60;;;;;;5093733;28;20572;-82
2021/03/10 08:37:04;;;;;;;30.13;17.15;;;6.50;96.70;;;;;;5096144;28;20066;-83
2021/03/10 08:39:31;;;;;;;33.10;18.48;;;6.60;96.40;;;;;;5079959;28;20090;-83
2021/03/10 08:41:59;;;;;;;35.40;19.25;;;6.60;96.20;;;;;;5094425;28;20418;-82
2021/03/10 08:44:27;;;;;;;33.35;18.48;;;6.60;96.40;;;;;;5058301;28;20600;-83
2021/03/10 08:46:56;;;;;;;29.67;17.30;;;6.60;96.10;;;;;;5076016;28;20142;-84
2021/03/10 08:49:29;;;;;;;32.88;19.20;;;6.50;96.40;;;;;;5093829;28;20071;-82
2021/03/10 08:52:10;;;;;;;34.13;18.77;;;6.50;96.60;;;;;;5092613;28;20048;-83
2021/03/10 08:54:51;;;;;;;30.65;16.95;;;6.50;96.30;;;;;;5086852;28;20048;-83
2021/03/10 08:57:19;;;;;;;30.60;18.17;;;6.50;96.30;;;;;;5082135;28;20059;-83
2021/03/10 08:59:46;;;;;;;34.63;18.27;;;6.50;96.60;;;;;;5082268;28;20101;-84
2021/03/10 09:02:14;;;;;;;29.77;16.52;;;6.50;96.50;;;;;;5082339;28;20134;-82
2021/03/10 09:04:48;;;;;;;31.70;17.77;;;6.50;96.90;;;;;;5095840;28;20310;-84
2021/03/10 09:07:18;;;;;;;28.70;16.17;;;6.60;96.60;;;;;;5074662;28;20139;-82
2021/03/10 09:25:07;;;;;;;31.35;18.92;;;6.70;95.60;;;;;;5107102;27;20840;-77
2021/03/10 09:27:34;;;;;;;33.90;19.88;;;7.00;96.00;;;;;;5086916;28;20139;-77
2021/03/10 09:30:05;;;;;;;31.85;18.17;;;7.20;95.70;;;;;;5086731;28;20493;-77
2021/03/10 09:32:40;;;;;;;29.92;17.75;;;7.30;95.50;;;;;;5088885;28;20128;-78
2021/03/10 09:35:18;;;;;;;30.67;16.73;;;7.40;95.30;;;;;;5088455;28;20076;-78
2021/03/10 09:37:48;;;;;;;30.08;17.60;;;7.30;95.10;;;;;;5087994;28;20075;-77
2021/03/10 09:40:18;;;;;;;29.77;17.90;;;7.60;94.90;;;;;;5086690;28;20490;-77
2021/03/10 09:43:00;;;;;;;28.58;17.00;;;7.60;94.80;;;;;;5087586;28;20139;-77
2021/03/10 09:45:29;;;;;;;27.52;16.50;;;7.70;94.70;;;;;;5087158;28;20080;-77
2021/03/10 09:47:55;;;;;;;27.17;16.70;;;7.80;94.40;;;;;;5087353;28;20091;-77
2021/03/10 09:50:32;;;;;;;30.20;17.30;;;7.80;94.40;;;;;;5087572;28;20139;-78
2021/03/10 09:53:00;;;;;;;32.70;18.52;;;7.70;94.00;;;;;;5087450;28;20477;-78
2021/03/10 09:55:27;;;;;;;31.25;18.10;;;8.00;93.50;;;;;;5087084;28;20128;-77
2021/03/10 09:58:02;;;;;;;28.08;17.52;;;8.10;93.80;;;;;;5087263;28;20147;-77
2021/03/10 10:00:29;;;;;;;29.63;17.75;;;8.20;93.30;;;;;;5087058;28;20503;-77
2021/03/10 10:02:55;;;;;;;30.50;17.42;;;8.20;92.90;;;;;;5086564;28;20135;-78
2021/03/10 10:05:25;;;;;;;29.58;17.20;;;8.30;92.60;;;;;;5086959;28;20143;-78
2021/03/10 10:07:52;;;;;;;32.42;19.55;;;8.40;92.80;;;;;;5086862;28;20132;-77
2021/03/10 10:10:19;;;;;;;33.03;19.23;;;8.60;91.80;;;;;;5086973;28;20076;-78
2021/03/10 10:12:50;;;;;;;31.05;18.27;;;8.60;91.70;;;;;;5086924;28;20052;-78
2021/03/10 10:15:20;;;;;;;31.33;19.25;;;8.60;92.10;;;;;;5086682;28;20532;-78
2021/03/10 10:17:49;;;;;;;28.70;18.08;;;8.70;91.80;;;;;;5087018;28;20139;-78
2021/03/10 10:20:20;;;;;;;29.25;18.05;;;8.90;91.80;;;;;;5086750;28;20135;-77
2021/03/10 10:22:48;;;;;;;32.88;19.73;;;8.80;91.50;;;;;;5086843;28;20132;-76
2021/03/10 10:25:16;;;;;;;28.27;16.88;;;8.90;91.40;;;;;;5076812;28;20102;-77
2021/03/10 10:27:44;;;;;;;28.10;16.73;;;9.00;90.50;;;;;;5055666;28;20291;-77
2021/03/10 10:30:15;;;;;;;27.42;17.60;;;9.10;90.50;;;;;;5073425;28;20128;-79
2021/03/10 10:32:41;;;;;;;26.33;15.75;;;9.10;89.80;;;;;;5073082;28;20048;-77
2021/03/10 10:35:10;;;;;;;25.67;15.65;;;9.20;90.10;;;;;;5073473;28;20114;-78
2021/03/10 10:37:37;;;;;;;26.67;16.08;;;9.20;89.20;;;;;;5072716;28;20158;-78
2021/03/10 10:40:08;;;;;;;25.63;16.45;;;9.40;87.30;;;;;;5073104;28;20140;-78
2021/03/10 10:42:35;;;;;;;23.25;14.13;;;9.40;88.80;;;;;;5071878;28;20455;-78
2021/03/10 10:45:02;;;;;;;24.60;14.52;;;9.40;83.90;;;;;;5072940;28;20514;-78
2021/03/10 10:47:30;;;;;;;22.60;13.50;;;9.50;80.50;;;;;;5072053;28;20538;-77
2021/03/10 10:49:57;;;;;;;21.23;13.00;;;9.50;80.80;;;;;;5072843;28;20049;-78
2021/03/10 10:52:24;;;;;;;24.20;13.85;;;9.50;82.40;;;;;;5072859;28;20509;-78
2021/03/10 10:54:50;;;;;;;24.33;13.32;;;9.60;81.60;;;;;;5072802;28;20057;-78
2021/03/10 10:57:17;;;;;;;23.23;14.13;;;9.70;80.70;;;;;;5073534;28;20561;-78
2021/03/10 10:59:44;;;;;;;23.65;14.52;;;9.80;79.10;;;;;;5072716;28;20051;-76
2021/03/10 11:02:10;;;;;;;25.30;15.43;;;9.80;79.20;;;;;;5072837;28;20087;-77
2021/03/10 11:04:38;;;;;;;26.13;15.48;;;10.00;79.00;;;;;;5073036;28;20048;-77
2021/03/10 11:07:05;;;;;;;25.83;15.35;;;9.90;78.10;;;;;;5071614;28;20441;-76
2021/03/10 11:09:33;;;;;;;24.38;14.98;;;10.00;79.40;;;;;;5072539;28;20072;-78
2021/03/10 11:12:00;;;;;;;25.48;15.07;;;10.00;79.50;;;;;;5072356;28;20394;-78
2021/03/10 11:14:27;;;;;;;24.35;15.00;;;10.00;79.00;;;;;;5072447;28;20143;-77
2021/03/10 11:16:56;;;;;;;20.50;13.27;;;10.10;76.30;;;;;;5071548;28;20127;-77
2021/03/10 11:19:23;;;;;;;22.45;14.05;;;9.90;77.00;;;;;;5072427;28;20460;-77
2021/03/10 11:21:50;;;;;;;22.48;13.75;;;10.00;76.80;;;;;;5072511;28;20064;-76
2021/03/10 11:24:17;;;;;;;23.83;13.57;;;10.10;77.00;;;;;;5073408;28;20155;-77
2021/03/10 11:26:44;;;;;;;21.40;13.50;;;10.00;76.20;;;;;;5072403;28;20242;-78
2021/03/10 11:29:11;;;;;;;19.33;12.02;;;9.90;76.40;;;;;;5072272;28;20580;-77
2021/03/10 11:31:38;;;;;;;18.77;11.52;;;9.90;77.50;;;;;;5072154;28;20084;-77
2021/03/10 11:34:04;;;;;;;19.58;12.85;;;9.80;77.50;;;;;;5071262;28;20601;-77
2021/03/10 11:36:31;;;;;;;23.30;14.77;;;9.80;76.40;;;;;;5071704;28;20139;-78
2021/03/10 11:38:59;;;;;;;22.75;12.95;;;9.90;73.80;;;;;;5072426;28;20040;-78
2021/03/10 11:41:25;;;;;;;20.75;12.45;;;9.70;73.80;;;;;;5072107;28;20135;-79
2021/03/10 11:43:52;;;;;;;20.02;12.18;;;9.70;72.80;;;;;;5071494;28;20135;-77
2021/03/10 11:46:18;;;;;;;19.55;11.10;;;9.80;71.30;;;;;;5071667;28;20088;-77
2021/03/10 11:48:45;;;;;;;19.63;12.00;;;9.60;71.20;;;;;;5071670;28;20477;-77
2021/03/10 11:51:12;;;;;;;19.83;12.73;;;9.50;71.20;;;;;;5072050;28;20173;-78
2021/03/10 11:53:38;;;;;;;20.38;12.27;;;9.40;71.30;;;;;;5072020;28;20474;-77
2021/03/10 11:56:06;;;;;;;16.42;10.40;;;9.30;71.10;;;;;;5071809;28;20048;-77
2021/03/10 11:58:33;;;;;;;18.60;11.02;;;9.20;73.30;;;;;;5071439;28;20565;-78
2021/03/10 12:00:59;;;;;;;19.15;11.82;;;9.20;73.20;;;;;;5071587;28;20147;-78
2021/03/10 12:03:26;;;;;;;21.50;13.77;;;9.10;73.20;;;;;;5071556;28;20049;-77
2021/03/10 12:05:52;;;;;;;20.70;12.63;;;9.20;72.20;;;;;;5070898;28;20110;-79
2021/03/10 12:08:19;;;;;;;22.65;11.70;;;9.20;72.30;;;;;;5071357;28;20485;-77
2021/03/10 12:10:45;;;;;;;19.52;11.63;;;9.10;72.00;;;;;;5071477;28;20183;-78
2021/03/10 12:13:13;;;;;;;17.95;10.65;;;9.10;71.90;;;;;;5071232;28;20131;-79
2021/03/10 12:15:40;;;;;;;15.68;9.38;;;9.00;73.30;;;;;;5070611;28;20135;-77
2021/03/10 12:18:07;;;;;;;18.77;10.15;;;9.00;70.70;;;;;;5071435;28;20132;-77
2021/03/10 12:20:34;;;;;;;15.50;9.27;;;9.00;71.00;;;;;;5071227;28;20139;-78
2021/03/10 12:23:01;;;;;;;16.42;9.45;;;9.10;70.90;;;;;;5070975;28;20139;-78
2021/03/10 12:25:28;;;;;;;15.65;9.63;;;9.10;70.40;;;;;;5070726;28;20191;-78
2021/03/10 12:27:56;;;;;;;16.20;9.63;;;9.00;68.80;;;;;;5070971;28;20060;-78
2021/03/10 12:30:24;;;;;;;13.93;8.50;;;9.10;68.50;;;;;;5070799;28;20490;-78
2021/03/10 12:32:51;;;;;;;12.25;7.35;;;9.20;68.90;;;;;;5070964;28;20131;-78
2021/03/10 12:35:18;;;;;;;11.60;7.13;;;9.20;66.70;;;;;;5070197;28;20072;-78
2021/03/10 12:37:45;;;;;;;14.70;8.60;;;9.40;67.20;;;;;;5070993;28;20140;-79
2021/03/10 12:40:12;;;;;;;13.98;8.95;;;9.50;66.30;;;;;;5070708;28;20135;-77
2021/03/10 12:42:40;;;;;;;18.95;9.90;;;9.60;66.30;;;;;;5070730;28;20076;-77
2021/03/10 12:45:08;;;;;;;14.98;8.82;;;9.70;65.70;;;;;;5070530;28;20091;-79
2021/03/10 12:47:36;;;;;;;15.43;8.95;;;9.80;65.80;;;;;;5069978;28;20517;-78
2021/03/10 12:50:03;;;;;;;26.98;14.40;;;9.90;65.80;;;;;;5069556;28;20040;-78
2021/03/10 12:52:30;;;;;;;18.10;10.63;;;9.80;66.20;;;;;;5070390;28;20140;-78
2021/03/10 12:54:57;;;;;;;15.70;9.15;;;10.00;64.40;;;;;;5069922;28;20461;-77
2021/03/10 12:57:24;;;;;;;15.93;9.55;;;10.00;64.80;;;;;;5069651;28;20061;-78
2021/03/10 12:59:50;;;;;;;18.40;10.63;;;9.90;65.50;;;;;;5069654;28;20131;-78